Terminal Aerodrome Forecast
Issued by NWS

Home | Current Version | Previous Version | Text Only | Print | Product List | Glossary On
Versions: 1 2 3 4 5 6 7 8 9 10 11 12 13 14 15 16 17 18 19 20 21 22 23 24 25 26 27 28 29 30 31 32 33
000
FTUS41 KBTV 202323
TAFMPV
TAF
KMPV 202323Z 2100/2124 00000KT 6SM -SHRA BR OVC007
     FM210500 35005KT 5SM BR VCSH OVC007
     FM211200 34007KT P6SM OVC013
     FM211500 34009KT P6SM BKN028
     FM211800 33011KT P6SM BKN035=

USA.gov is the U.S. government's official web portal to all federal, state and local government web resources and services.